Nearby METAR Reports

 

EBAW - Antwerp/Deurne, Belgium
Distance from station: ЮЮИ 9km
Актуализирано: 24/07/2024 01:20
Облачно
Облачно
 Вятър от СЗ
Вятър: СЗ 11 km/h
Температура: 17°C
Точка на оросяване: 13°C
Влажност: 77%
Барометър: 1021 hPa
Clouds: Облачно
Visibility: 10 km
Cloud details: Облачно 975 m
2024/07/23 23:20 EBAW 232320Z AUTO 32006KT 9999 // OVC032/// 17/13 Q1021
EHWO - Woensdrecht Rnla, Netherlands
Distance from station: ССЗ 20km
Актуализирано: 24/07/2024 01:25
Облачно
Облачно
 Вятър от ЗСЗ
Вятър: ЗСЗ 11 km/h
Температура: 16°C
Точка на оросяване: 14°C
Влажност: 88%
Барометър: 1021 hPa
Clouds: Облачно
Visibility: 10 km
Cloud details: Облачно 1158 m
2024/07/23 23:25 EHWO 232325Z AUTO 29006KT 240V360 9999 OVC038 16/14 Q1021 BLU
 
EBBR - Brussels Nationa, Belgium
Distance from station: Ю 43km
Актуализирано: 24/07/2024 01:20
Преобладаваща облачност
Преобладаваща облачност
 Вятър от ЗСЗ
Вятър: ЗСЗ 11 km/h
Температура: 16°C
Точка на оросяване: 14°C
Влажност: 88%
Барометър: 1022 hPa
Clouds: Преобладаваща облачност
Visibility: 10 km
Cloud details: Преобладаваща облачност 1036 m
2024/07/23 23:20 EBBR 232320Z 30006KT 9999 BKN034 16/14 Q1022 NOSIG
EHGR - Gilze-Rijen Rnla, Netherlands
Distance from station: СИ 47km
Актуализирано: 24/07/2024 01:25
Облачно
Облачно
 Вятър от ЗСЗ
Вятър: ЗСЗ 9 km/h
Температура: 16°C
Точка на оросяване: 14°C
Влажност: 88%
Барометър: 1020 hPa
Clouds: Облачно
Visibility: 10 km
Cloud details: Облачно 1128 m
2024/07/23 23:25 EHGR 232325Z AUTO 29005KT 9999 OVC037 16/14 Q1020 BLU
 
EBDT - Schaffen, Belgium
Distance from station: ИЮИ 54km
Актуализирано: 23/07/2024 15:25
NOT Current

 Вятър от З
Вятър: З 19 km/h
Температура: 22°C
Точка на оросяване: 14°C
Влажност: 61%
Барометър: 1016 hPa
Visibility: 10 km
2024/07/23 13:25 EBDT 231325Z AUTO 26010KT 9999 /// 22/14 Q1016 BLU
EHFS - Vlissingen, Netherlands
Distance from station: ЗСЗ 60km
Актуализирано: 24/07/2024 01:25
Облачно
Облачно
 Вятър от СЗ
Вятър: СЗ 11 km/h
Температура: 16°C
Точка на оросяване: 14°C
Влажност: 88%
Барометър: 1021 hPa
Clouds: Облачно
Visibility: 10 km
Cloud details: Облачно 914 m
2024/07/23 23:25 EHFS 232325Z AUTO 31006KT 260V330 9999 OVC030/// 16/14 Q1021
 
EBBE - Beauvechain (baf, Belgium
Distance from station: ЮЮИ 64km
Актуализирано: 24/07/2024 01:25
Облачно
Облачно
 Вятър от З
Вятър: З 6 km/h
Температура: 15°C
Точка на оросяване: 15°C
Влажност: 100%
Барометър: 1022 hPa
Clouds: Облачно
Visibility: 10 km
Cloud details: Few Clouds 396 m
Облачно 853 m
2024/07/23 23:25 EBBE 232325Z AUTO 27003KT 9999 FEW013/// OVC028/// 15/15 Q1022 BLU
EHEH - Eindhoven Rnlafb, Netherlands
Distance from station: ИСИ 69km
Актуализирано: 24/07/2024 01:25
Облачно
Облачно
 Вятър от З
Вятър: З 7 km/h
Температура: 16°C
Точка на оросяване: 14°C
Влажност: 88%
Барометър: 1020 hPa
Clouds: Облачно
Visibility: 10 km
Cloud details: Облачно 975 m
2024/07/23 23:25 EHEH 232325Z AUTO 27004KT 230V320 9999 OVC032 16/14 Q1020 BLU
 
EBBL - Kleine-Brogel(Ba, Belgium
Distance from station: И 74km
Актуализирано: 24/07/2024 01:25
Преобладаваща облачност
Преобладаваща облачност
 Вятър от ЗЮЗ
Вятър: ЗЮЗ 9 km/h
Температура: 16°C
Точка на оросяване: 15°C
Влажност: 94%
Барометър: 1021 hPa
Clouds: Преобладаваща облачност
Visibility: 10 km
Cloud details: Преобладаваща облачност 884 m
2024/07/23 23:25 EBBL 232325Z AUTO 25005KT 9999 BKN029/// 16/15 Q1021 BLU
EHRD - Rotterdam Airpor, Netherlands
Distance from station: С 75km
Актуализирано: 24/07/2024 01:25
Преобладаваща облачност
Преобладаваща облачност
 Вятър от СЗ
Вятър: СЗ 11 km/h
Температура: 17°C
Точка на оросяване: 15°C
Влажност: 88%
Барометър: 1020 hPa
Clouds: Преобладаваща облачност
Visibility: 10 km
Cloud details: Преобладаваща облачност 366 m
Преобладаваща облачност 518 m
Преобладаваща облачност 792 m
2024/07/23 23:25 EHRD 232325Z AUTO 31006KT 270V010 9999 BKN012 BKN017 BKN026 17/15 Q1020 REDZ TEMPO SCT014 BKN025
 
EHSC - Goeree Le Sea, Netherlands
Distance from station: СЗ 89km
Актуализирано: 24/07/2024 01:25

 Вятър от ССЗ
Вятър: ССЗ 30 km/h
Температура: 17°C
Точка на оросяване: 14°C
Влажност: 83%
Барометър: 1021 hPa
Visibility: 10 km
2024/07/23 23:25 EHSC 232325Z AUTO 33016KT 9999 ///////// 17/14 Q1021 W19/H12
EBCI - Charleroi/Gossel, Belgium
Distance from station: Ю 90km
Актуализирано: 24/07/2024 01:20
Преобладаваща облачност
Преобладаваща облачност
 Вятър от З
Вятър: З 7 km/h
Температура: 15°C
Точка на оросяване: 13°C
Влажност: 88%
Барометър: 1022 hPa
Clouds: Преобладаваща облачност
Visibility: 10 km
Cloud details: Few Clouds 244 m
Преобладаваща облачност 792 m
2024/07/23 23:20 EBCI 232320Z 28004KT 240V340 9999 FEW008 BKN026 15/13 Q1022 NOSIG
 
EBCV - Chievres Ab, Belgium
Distance from station: ЮЮЗ 90km
Актуализирано: 24/07/2024 01:25
Преобладаваща облачност
Преобладаваща облачност
 Вятър от ЗСЗ
Вятър: ЗСЗ 6 km/h
Температура: 14°C
Точка на оросяване: 13°C
Влажност: 94%
Барометър: 1022 hPa
Clouds: Преобладаваща облачност
Visibility: 10 km
Cloud details: Few Clouds 2743 m
Преобладаваща облачност 3353 m
Преобладаваща облачност 3658 m
2024/07/23 23:25 EBCV 232325Z AUTO 30003KT 9999 FEW090/// BKN110/// BKN120/// 14/13 Q1022 BLU
EHVK - Volkel Rnlafb, Netherlands
Distance from station: ИСИ 97km
Актуализирано: 24/07/2024 01:25
Облачно
Облачно
 Вятър от З
Вятър: З 11 km/h
Температура: 16°C
Точка на оросяване: 14°C
Влажност: 88%
Барометър: 1020 hPa
Clouds: Облачно
Visibility: 10 km
Cloud details: Облачно 1128 m
2024/07/23 23:25 EHVK 232325Z AUTO 26006KT 230V300 9999 OVC037 16/14 Q1020 BLU
 
EBLG - Bierset/Liege (c, Belgium
Distance from station: ЮИ 102km
Актуализирано: 24/07/2024 01:20
Преобладаваща облачност
Преобладаваща облачност
 Вятър от ЗСЗ
Вятър: ЗСЗ 7 km/h
Температура: 16°C
Точка на оросяване: 14°C
Влажност: 88%
Барометър: 1021 hPa
Clouds: Преобладаваща облачност
Visibility: 10 km
Cloud details: Преобладаваща облачност 671 m
2024/07/23 23:20 EBLG 232320Z 30004KT 270V340 9999 BKN022 16/14 Q1021 NOSIG
EHBK - Zuid-Limburg/Bee, Netherlands
Distance from station: ИЮИ 102km
Актуализирано: 24/07/2024 01:25
Облачно
Облачно
 Вятър от З
Вятър: З 7 km/h
Температура: 16°C
Точка на оросяване: 13°C
Влажност: 83%
Барометър: 1021 hPa
Clouds: Облачно
Visibility: 10 km
Cloud details: Облачно 732 m
2024/07/23 23:25 EHBK 232325Z AUTO 27004KT 230V310 9999 OVC024/// 16/13 Q1021
 
EBOS - Oostende Airport, Belgium
Distance from station: З 108km
Актуализирано: 24/07/2024 01:20
Частична облачност
Частична облачност
 Вятър от С
Вятър: С 9 km/h
Температура: 16°C
Точка на оросяване: 13°C
Влажност: 83%
Барометър: 1022 hPa
Clouds: Частична облачност
Visibility: 10 km
Cloud details: Частична облачност 457 m
2024/07/23 23:20 EBOS 232320Z 35005KT 9999 SCT015 16/13 Q1022 NOSIG
EHSA - Euro Platform, Netherlands
Distance from station: СЗ 112km
Актуализирано: 24/07/2024 01:25

 Вятър от СЗ
Вятър: СЗ 28 km/h
Температура: 16°C
Точка на оросяване: 14°C
Влажност: 88%
Барометър: 1021 hPa
Visibility: 10 km
2024/07/23 23:25 EHSA 232325Z AUTO 32015KT 9999 ///////// 16/14 Q1021 W18/H11
 
EHAM - Amsterdam/Schiph, Netherlands
Distance from station: ССИ 118km
Актуализирано: 24/07/2024 01:25
Частична облачност
Частична облачност
 Вятър от СЗ
Вятър: СЗ 13 km/h
Температура: 17°C
Точка на оросяване: 15°C
Влажност: 88%
Барометър: 1020 hPa
Clouds: Частична облачност
Visibility: 10 km
Cloud details: Few Clouds 305 m
Частична облачност 366 m
2024/07/23 23:25 EHAM 232325Z 32007KT 280V340 9999 FEW010 SCT012 17/15 Q1020 NOSIG
ETNG - Geilenkirchen(Na, Germany
Distance from station: ИЮИ 118km
Актуализирано: 24/07/2024 01:50
Преобладаваща облачност
Преобладаваща облачност
 Вятър от З
Вятър: З 9 km/h
Температура: 16°C
Точка на оросяване: 14°C
Влажност: 88%
Барометър: 1020 hPa
Clouds: Преобладаваща облачност
Visibility: 10 km
Cloud details: Преобладаваща облачност 823 m
2024/07/23 23:50 ETNG 232350Z 28005KT 9999 BKN027 16/14 Q1020